sensor_id;sensor_type;location;lat;lon;timestamp;P1;durP1;ratioP1;P2;durP2;ratioP2
19776;SDS011;10047;42.490;26.012;2023-04-08T00:01:38;28.40;;;22.95;;
19776;SDS011;10047;42.490;26.012;2023-04-08T00:04:04;28.95;;;23.33;;
19776;SDS011;10047;42.490;26.012;2023-04-08T00:06:29;30.20;;;23.83;;
19776;SDS011;10047;42.490;26.012;2023-04-08T00:09:02;27.95;;;22.98;;
19776;SDS011;10047;42.490;26.012;2023-04-08T00:11:28;28.13;;;23.33;;
19776;SDS011;10047;42.490;26.012;2023-04-08T00:13:53;26.65;;;22.52;;
19776;SDS011;10047;42.490;26.012;2023-04-08T00:16:18;29.08;;;22.95;;
19776;SDS011;10047;42.490;26.012;2023-04-08T00:18:44;28.38;;;21.92;;
19776;SDS011;10047;42.490;26.012;2023-04-08T00:21:10;29.17;;;23.45;;
19776;SDS011;10047;42.490;26.012;2023-04-08T00:23:35;26.85;;;22.90;;
19776;SDS011;10047;42.490;26.012;2023-04-08T00:26:00;31.13;;;23.35;;
19776;SDS011;10047;42.490;26.012;2023-04-08T00:28:26;31.08;;;23.33;;
19776;SDS011;10047;42.490;26.012;2023-04-08T00:30:51;26.48;;;21.67;;
19776;SDS011;10047;42.490;26.012;2023-04-08T00:33:17;27.98;;;22.55;;
19776;SDS011;10047;42.490;26.012;2023-04-08T00:35:42;26.48;;;22.40;;
19776;SDS011;10047;42.490;26.012;2023-04-08T00:38:08;28.65;;;23.55;;
19776;SDS011;10047;42.490;26.012;2023-04-08T00:40:34;29.95;;;23.60;;
19776;SDS011;10047;42.490;26.012;2023-04-08T00:42:59;27.02;;;22.73;;
19776;SDS011;10047;42.490;26.012;2023-04-08T00:45:25;28.92;;;23.08;;
19776;SDS011;10047;42.490;26.012;2023-04-08T00:47:50;31.15;;;23.60;;
19776;SDS011;10047;42.490;26.012;2023-04-08T00:50:16;30.02;;;24.17;;
19776;SDS011;10047;42.490;26.012;2023-04-08T00:52:42;28.98;;;24.15;;
19776;SDS011;10047;42.490;26.012;2023-04-08T00:55:07;30.30;;;25.10;;
19776;SDS011;10047;42.490;26.012;2023-04-08T00:57:33;27.00;;;23.10;;
19776;SDS011;10047;42.490;26.012;2023-04-08T00:59:59;28.83;;;22.88;;
19776;SDS011;10047;42.490;26.012;2023-04-08T01:02:42;28.05;;;23.65;;
19776;SDS011;10047;42.490;26.012;2023-04-08T01:08:10;26.92;;;22.65;;
19776;SDS011;10047;42.490;26.012;2023-04-08T01:10:36;29.15;;;23.23;;
19776;SDS011;10047;42.490;26.012;2023-04-08T01:13:11;27.70;;;23.42;;
19776;SDS011;10047;42.490;26.012;2023-04-08T01:15:39;28.52;;;23.52;;
19776;SDS011;10047;42.490;26.012;2023-04-08T01:18:10;29.90;;;23.50;;
19776;SDS011;10047;42.490;26.012;2023-04-08T01:20:38;31.02;;;23.67;;
19776;SDS011;10047;42.490;26.012;2023-04-08T01:25:57;28.25;;;23.25;;
19776;SDS011;10047;42.490;26.012;2023-04-08T01:28:24;27.75;;;23.30;;
19776;SDS011;10047;42.490;26.012;2023-04-08T01:30:54;28.63;;;24.08;;
19776;SDS011;10047;42.490;26.012;2023-04-08T01:33:22;30.90;;;23.67;;
19776;SDS011;10047;42.490;26.012;2023-04-08T01:35:48;29.83;;;23.40;;
19776;SDS011;10047;42.490;26.012;2023-04-08T01:38:17;27.92;;;23.00;;
19776;SDS011;10047;42.490;26.012;2023-04-08T01:40:45;27.55;;;22.33;;
19776;SDS011;10047;42.490;26.012;2023-04-08T01:43:15;27.83;;;22.70;;
19776;SDS011;10047;42.490;26.012;2023-04-08T01:45:44;26.95;;;22.77;;
19776;SDS011;10047;42.490;26.012;2023-04-08T01:48:13;27.50;;;22.40;;
19776;SDS011;10047;42.490;26.012;2023-04-08T01:50:43;28.75;;;22.48;;
19776;SDS011;10047;42.490;26.012;2023-04-08T01:53:10;27.42;;;21.80;;
19776;SDS011;10047;42.490;26.012;2023-04-08T01:55:37;26.27;;;21.63;;
19776;SDS011;10047;42.490;26.012;2023-04-08T01:58:06;27.20;;;21.17;;
19776;SDS011;10047;42.490;26.012;2023-04-08T02:00:32;29.80;;;21.92;;
19776;SDS011;10047;42.490;26.012;2023-04-08T02:02:59;25.55;;;21.70;;
19776;SDS011;10047;42.490;26.012;2023-04-08T02:05:26;29.00;;;22.25;;
19776;SDS011;10047;42.490;26.012;2023-04-08T02:07:52;30.10;;;21.77;;
19776;SDS011;10047;42.490;26.012;2023-04-08T02:10:17;26.83;;;21.83;;
19776;SDS011;10047;42.490;26.012;2023-04-08T02:12:43;27.05;;;21.50;;
19776;SDS011;10047;42.490;26.012;2023-04-08T02:15:10;25.92;;;21.25;;
19776;SDS011;10047;42.490;26.012;2023-04-08T02:20:05;29.27;;;21.85;;
19776;SDS011;10047;42.490;26.012;2023-04-08T02:25:16;27.40;;;21.63;;
19776;SDS011;10047;42.490;26.012;2023-04-08T02:27:47;18.45;;;15.75;;
19776;SDS011;10047;42.490;26.012;2023-04-08T02:30:13;25.40;;;20.98;;
19776;SDS011;10047;42.490;26.012;2023-04-08T02:32:40;24.95;;;21.17;;
19776;SDS011;10047;42.490;26.012;2023-04-08T02:35:07;26.88;;;21.73;;
19776;SDS011;10047;42.490;26.012;2023-04-08T02:37:35;25.88;;;20.73;;
19776;SDS011;10047;42.490;26.012;2023-04-08T02:40:01;24.55;;;19.85;;
19776;SDS011;10047;42.490;26.012;2023-04-08T02:42:26;25.73;;;20.85;;
19776;SDS011;10047;42.490;26.012;2023-04-08T02:44:52;24.60;;;21.10;;
19776;SDS011;10047;42.490;26.012;2023-04-08T02:47:17;24.17;;;19.77;;
19776;SDS011;10047;42.490;26.012;2023-04-08T02:49:43;23.83;;;20.35;;
19776;SDS011;10047;42.490;26.012;2023-04-08T02:52:08;26.60;;;21.35;;
19776;SDS011;10047;42.490;26.012;2023-04-08T02:54:35;26.45;;;20.10;;
19776;SDS011;10047;42.490;26.012;2023-04-08T02:57:00;24.17;;;20.35;;
19776;SDS011;10047;42.490;26.012;2023-04-08T02:59:26;23.90;;;19.60;;
19776;SDS011;10047;42.490;26.012;2023-04-08T03:01:51;27.27;;;21.25;;
19776;SDS011;10047;42.490;26.012;2023-04-08T03:04:17;25.00;;;21.05;;
19776;SDS011;10047;42.490;26.012;2023-04-08T03:06:42;28.38;;;22.13;;
19776;SDS011;10047;42.490;26.012;2023-04-08T03:09:08;27.65;;;20.98;;
19776;SDS011;10047;42.490;26.012;2023-04-08T03:11:33;26.75;;;20.60;;
19776;SDS011;10047;42.490;26.012;2023-04-08T03:13:59;24.92;;;20.67;;
19776;SDS011;10047;42.490;26.012;2023-04-08T03:16:31;25.40;;;21.40;;
19776;SDS011;10047;42.490;26.012;2023-04-08T03:18:57;23.90;;;20.35;;
19776;SDS011;10047;42.490;26.012;2023-04-08T03:21:22;24.58;;;20.58;;
19776;SDS011;10047;42.490;26.012;2023-04-08T03:23:48;23.50;;;20.92;;
19776;SDS011;10047;42.490;26.012;2023-04-08T03:26:14;22.75;;;19.90;;
19776;SDS011;10047;42.490;26.012;2023-04-08T03:28:39;26.20;;;20.38;;
19776;SDS011;10047;42.490;26.012;2023-04-08T03:31:05;26.85;;;19.77;;
19776;SDS011;10047;42.490;26.012;2023-04-08T03:33:32;27.05;;;20.55;;
19776;SDS011;10047;42.490;26.012;2023-04-08T03:35:58;23.83;;;20.20;;
19776;SDS011;10047;42.490;26.012;2023-04-08T03:38:23;23.30;;;19.60;;
19776;SDS011;10047;42.490;26.012;2023-04-08T03:40:48;23.98;;;19.70;;
19776;SDS011;10047;42.490;26.012;2023-04-08T03:43:14;22.77;;;19.33;;
19776;SDS011;10047;42.490;26.012;2023-04-08T03:45:41;59.20;;;21.83;;
19776;SDS011;10047;42.490;26.012;2023-04-08T03:48:06;25.67;;;19.60;;
19776;SDS011;10047;42.490;26.012;2023-04-08T03:50:31;25.88;;;20.17;;
19776;SDS011;10047;42.490;26.012;2023-04-08T03:52:57;26.08;;;20.52;;
19776;SDS011;10047;42.490;26.012;2023-04-08T03:55:22;25.38;;;20.45;;
19776;SDS011;10047;42.490;26.012;2023-04-08T03:57:48;25.45;;;20.92;;
19776;SDS011;10047;42.490;26.012;2023-04-08T04:00:13;25.83;;;21.15;;
19776;SDS011;10047;42.490;26.012;2023-04-08T04:02:39;26.60;;;21.83;;
19776;SDS011;10047;42.490;26.012;2023-04-08T04:05:05;26.98;;;21.58;;
19776;SDS011;10047;42.490;26.012;2023-04-08T04:07:30;28.42;;;22.70;;
19776;SDS011;10047;42.490;26.012;2023-04-08T04:09:56;26.92;;;21.88;;
19776;SDS011;10047;42.490;26.012;2023-04-08T04:12:22;25.23;;;21.73;;
19776;SDS011;10047;42.490;26.012;2023-04-08T04:14:47;27.90;;;21.73;;
19776;SDS011;10047;42.490;26.012;2023-04-08T04:17:13;26.85;;;22.48;;
19776;SDS011;10047;42.490;26.012;2023-04-08T04:19:38;27.13;;;22.90;;
19776;SDS011;10047;42.490;26.012;2023-04-08T04:22:04;25.98;;;22.73;;
19776;SDS011;10047;42.490;26.012;2023-04-08T04:24:30;26.55;;;22.40;;
19776;SDS011;10047;42.490;26.012;2023-04-08T04:26:55;26.10;;;22.67;;
19776;SDS011;10047;42.490;26.012;2023-04-08T04:29:20;28.60;;;23.65;;
19776;SDS011;10047;42.490;26.012;2023-04-08T04:31:46;27.23;;;22.95;;
19776;SDS011;10047;42.490;26.012;2023-04-08T04:34:11;30.45;;;23.17;;
19776;SDS011;10047;42.490;26.012;2023-04-08T04:36:37;28.73;;;23.08;;
19776;SDS011;10047;42.490;26.012;2023-04-08T04:39:02;27.55;;;22.90;;
19776;SDS011;10047;42.490;26.012;2023-04-08T04:41:27;26.92;;;22.20;;
19776;SDS011;10047;42.490;26.012;2023-04-08T04:43:53;28.25;;;21.40;;
19776;SDS011;10047;42.490;26.012;2023-04-08T04:46:18;27.67;;;22.48;;
19776;SDS011;10047;42.490;26.012;2023-04-08T04:48:44;28.23;;;21.90;;
19776;SDS011;10047;42.490;26.012;2023-04-08T04:51:09;28.30;;;22.92;;
19776;SDS011;10047;42.490;26.012;2023-04-08T04:53:35;28.17;;;22.83;;
19776;SDS011;10047;42.490;26.012;2023-04-08T04:56:00;28.85;;;21.88;;
19776;SDS011;10047;42.490;26.012;2023-04-08T04:58:26;26.35;;;21.60;;
19776;SDS011;10047;42.490;26.012;2023-04-08T05:00:52;29.20;;;23.58;;
19776;SDS011;10047;42.490;26.012;2023-04-08T05:03:17;26.85;;;21.98;;
19776;SDS011;10047;42.490;26.012;2023-04-08T05:05:42;25.52;;;21.75;;
19776;SDS011;10047;42.490;26.012;2023-04-08T05:08:08;31.88;;;23.73;;
19776;SDS011;10047;42.490;26.012;2023-04-08T05:10:33;33.10;;;23.13;;
19776;SDS011;10047;42.490;26.012;2023-04-08T05:12:59;28.33;;;22.23;;
19776;SDS011;10047;42.490;26.012;2023-04-08T05:15:24;30.38;;;22.73;;
19776;SDS011;10047;42.490;26.012;2023-04-08T05:17:50;26.05;;;21.40;;
19776;SDS011;10047;42.490;26.012;2023-04-08T05:20:15;26.58;;;21.13;;
19776;SDS011;10047;42.490;26.012;2023-04-08T05:22:41;27.52;;;19.98;;
19776;SDS011;10047;42.490;26.012;2023-04-08T05:25:08;24.25;;;19.25;;
19776;SDS011;10047;42.490;26.012;2023-04-08T05:27:34;23.38;;;20.08;;
19776;SDS011;10047;42.490;26.012;2023-04-08T05:30:00;27.88;;;21.08;;
19776;SDS011;10047;42.490;26.012;2023-04-08T05:32:25;24.95;;;20.27;;
19776;SDS011;10047;42.490;26.012;2023-04-08T05:34:51;24.33;;;20.40;;
19776;SDS011;10047;42.490;26.012;2023-04-08T05:37:16;25.42;;;20.58;;
19776;SDS011;10047;42.490;26.012;2023-04-08T05:39:42;26.27;;;19.73;;
19776;SDS011;10047;42.490;26.012;2023-04-08T05:42:07;23.52;;;20.10;;
19776;SDS011;10047;42.490;26.012;2023-04-08T05:44:32;29.13;;;23.23;;
19776;SDS011;10047;42.490;26.012;2023-04-08T05:46:58;23.63;;;19.25;;
19776;SDS011;10047;42.490;26.012;2023-04-08T05:49:24;25.20;;;20.67;;
19776;SDS011;10047;42.490;26.012;2023-04-08T05:51:49;24.70;;;21.00;;
19776;SDS011;10047;42.490;26.012;2023-04-08T05:54:15;25.35;;;20.23;;
19776;SDS011;10047;42.490;26.012;2023-04-08T05:56:40;27.48;;;23.27;;
19776;SDS011;10047;42.490;26.012;2023-04-08T05:59:06;23.15;;;19.60;;
19776;SDS011;10047;42.490;26.012;2023-04-08T06:01:31;24.95;;;20.00;;
19776;SDS011;10047;42.490;26.012;2023-04-08T06:03:57;24.25;;;19.73;;
19776;SDS011;10047;42.490;26.012;2023-04-08T06:06:22;24.38;;;19.95;;
19776;SDS011;10047;42.490;26.012;2023-04-08T06:08:49;23.23;;;19.27;;
19776;SDS011;10047;42.490;26.012;2023-04-08T06:11:15;24.40;;;20.52;;
19776;SDS011;10047;42.490;26.012;2023-04-08T06:13:41;25.17;;;19.20;;
19776;SDS011;10047;42.490;26.012;2023-04-08T06:16:13;23.75;;;19.60;;
19776;SDS011;10047;42.490;26.012;2023-04-08T06:18:41;22.75;;;19.75;;
19776;SDS011;10047;42.490;26.012;2023-04-08T06:21:06;22.55;;;18.88;;
19776;SDS011;10047;42.490;26.012;2023-04-08T06:23:32;23.23;;;19.20;;
19776;SDS011;10047;42.490;26.012;2023-04-08T06:25:57;23.05;;;19.40;;
19776;SDS011;10047;42.490;26.012;2023-04-08T06:28:23;22.30;;;19.23;;
19776;SDS011;10047;42.490;26.012;2023-04-08T06:30:48;22.63;;;19.00;;
19776;SDS011;10047;42.490;26.012;2023-04-08T06:33:14;21.58;;;18.33;;
19776;SDS011;10047;42.490;26.012;2023-04-08T06:35:40;21.88;;;18.98;;
19776;SDS011;10047;42.490;26.012;2023-04-08T06:38:05;22.55;;;16.92;;
19776;SDS011;10047;42.490;26.012;2023-04-08T06:40:31;23.52;;;17.90;;
19776;SDS011;10047;42.490;26.012;2023-04-08T06:42:57;21.95;;;17.30;;
19776;SDS011;10047;42.490;26.012;2023-04-08T06:45:23;20.60;;;17.08;;
19776;SDS011;10047;42.490;26.012;2023-04-08T06:47:48;19.00;;;16.85;;
19776;SDS011;10047;42.490;26.012;2023-04-08T06:50:14;23.10;;;18.98;;
19776;SDS011;10047;42.490;26.012;2023-04-08T06:52:39;22.02;;;17.65;;
19776;SDS011;10047;42.490;26.012;2023-04-08T06:55:05;21.63;;;17.95;;
19776;SDS011;10047;42.490;26.012;2023-04-08T06:57:30;20.52;;;18.33;;
19776;SDS011;10047;42.490;26.012;2023-04-08T06:59:56;22.27;;;18.30;;
19776;SDS011;10047;42.490;26.012;2023-04-08T07:02:21;23.10;;;18.25;;
19776;SDS011;10047;42.490;26.012;2023-04-08T07:04:47;21.45;;;17.63;;
19776;SDS011;10047;42.490;26.012;2023-04-08T07:07:13;21.38;;;17.67;;
19776;SDS011;10047;42.490;26.012;2023-04-08T07:09:38;22.00;;;18.85;;
19776;SDS011;10047;42.490;26.012;2023-04-08T07:12:20;22.00;;;17.92;;
19776;SDS011;10047;42.490;26.012;2023-04-08T07:14:46;20.73;;;17.45;;
19776;SDS011;10047;42.490;26.012;2023-04-08T07:17:11;22.50;;;16.90;;
19776;SDS011;10047;42.490;26.012;2023-04-08T07:19:36;22.40;;;17.20;;
19776;SDS011;10047;42.490;26.012;2023-04-08T07:22:02;21.92;;;18.10;;
19776;SDS011;10047;42.490;26.012;2023-04-08T07:24:28;23.25;;;18.52;;
19776;SDS011;10047;42.490;26.012;2023-04-08T07:26:53;22.42;;;19.02;;
19776;SDS011;10047;42.490;26.012;2023-04-08T07:29:20;21.33;;;16.63;;
19776;SDS011;10047;42.490;26.012;2023-04-08T07:31:46;25.73;;;19.85;;
19776;SDS011;10047;42.490;26.012;2023-04-08T07:34:11;26.20;;;20.20;;
19776;SDS011;10047;42.490;26.012;2023-04-08T07:36:37;29.88;;;22.05;;
19776;SDS011;10047;42.490;26.012;2023-04-08T07:39:03;19.88;;;17.77;;
19776;SDS011;10047;42.490;26.012;2023-04-08T07:41:28;21.13;;;18.88;;
19776;SDS011;10047;42.490;26.012;2023-04-08T07:43:54;22.95;;;18.85;;
19776;SDS011;10047;42.490;26.012;2023-04-08T07:46:20;22.67;;;17.92;;
19776;SDS011;10047;42.490;26.012;2023-04-08T07:48:45;20.23;;;17.95;;
19776;SDS011;10047;42.490;26.012;2023-04-08T07:51:11;27.20;;;20.90;;
19776;SDS011;10047;42.490;26.012;2023-04-08T07:53:37;22.90;;;17.05;;
19776;SDS011;10047;42.490;26.012;2023-04-08T07:56:08;20.90;;;18.50;;
19776;SDS011;10047;42.490;26.012;2023-04-08T07:58:35;21.35;;;18.10;;
19776;SDS011;10047;42.490;26.012;2023-04-08T08:01:01;23.27;;;18.25;;
19776;SDS011;10047;42.490;26.012;2023-04-08T08:03:27;27.30;;;21.30;;
19776;SDS011;10047;42.490;26.012;2023-04-08T08:05:52;28.52;;;20.25;;
19776;SDS011;10047;42.490;26.012;2023-04-08T08:08:17;22.15;;;18.80;;
19776;SDS011;10047;42.490;26.012;2023-04-08T08:10:43;25.08;;;20.13;;
19776;SDS011;10047;42.490;26.012;2023-04-08T08:13:08;24.98;;;18.77;;
19776;SDS011;10047;42.490;26.012;2023-04-08T08:15:34;22.50;;;19.20;;
19776;SDS011;10047;42.490;26.012;2023-04-08T08:17:59;27.67;;;20.70;;
19776;SDS011;10047;42.490;26.012;2023-04-08T08:20:25;26.13;;;20.52;;
19776;SDS011;10047;42.490;26.012;2023-04-08T08:22:51;24.35;;;20.20;;
19776;SDS011;10047;42.490;26.012;2023-04-08T08:25:16;22.15;;;19.25;;
19776;SDS011;10047;42.490;26.012;2023-04-08T08:27:42;24.48;;;19.90;;
19776;SDS011;10047;42.490;26.012;2023-04-08T08:30:07;21.92;;;18.95;;
19776;SDS011;10047;42.490;26.012;2023-04-08T08:32:33;22.15;;;19.73;;
19776;SDS011;10047;42.490;26.012;2023-04-08T08:35:00;23.27;;;18.33;;
19776;SDS011;10047;42.490;26.012;2023-04-08T08:37:25;24.17;;;19.42;;
19776;SDS011;10047;42.490;26.012;2023-04-08T08:39:51;22.67;;;19.40;;
19776;SDS011;10047;42.490;26.012;2023-04-08T08:42:23;25.08;;;19.45;;
19776;SDS011;10047;42.490;26.012;2023-04-08T08:44:50;21.00;;;17.65;;
19776;SDS011;10047;42.490;26.012;2023-04-08T08:47:15;20.33;;;18.05;;
19776;SDS011;10047;42.490;26.012;2023-04-08T08:49:41;21.10;;;18.20;;
19776;SDS011;10047;42.490;26.012;2023-04-08T08:52:08;22.83;;;17.35;;
19776;SDS011;10047;42.490;26.012;2023-04-08T08:54:35;22.60;;;17.27;;
19776;SDS011;10047;42.490;26.012;2023-04-08T08:57:00;20.48;;;16.75;;
19776;SDS011;10047;42.490;26.012;2023-04-08T08:59:25;21.60;;;18.13;;
19776;SDS011;10047;42.490;26.012;2023-04-08T09:01:51;20.30;;;18.08;;
19776;SDS011;10047;42.490;26.012;2023-04-08T09:04:17;19.77;;;17.67;;
19776;SDS011;10047;42.490;26.012;2023-04-08T09:06:48;21.17;;;17.38;;
19776;SDS011;10047;42.490;26.012;2023-04-08T09:09:16;19.15;;;17.10;;
19776;SDS011;10047;42.490;26.012;2023-04-08T09:11:43;20.90;;;16.73;;
19776;SDS011;10047;42.490;26.012;2023-04-08T09:14:30;17.35;;;15.43;;
19776;SDS011;10047;42.490;26.012;2023-04-08T09:16:56;21.13;;;17.48;;
19776;SDS011;10047;42.490;26.012;2023-04-08T09:19:22;19.30;;;17.20;;
19776;SDS011;10047;42.490;26.012;2023-04-08T09:22:03;19.20;;;16.42;;
19776;SDS011;10047;42.490;26.012;2023-04-08T09:24:32;18.33;;;16.15;;
19776;SDS011;10047;42.490;26.012;2023-04-08T09:26:58;18.55;;;16.00;;
19776;SDS011;10047;42.490;26.012;2023-04-08T09:29:24;19.83;;;16.30;;
19776;SDS011;10047;42.490;26.012;2023-04-08T09:31:58;19.00;;;16.75;;
19776;SDS011;10047;42.490;26.012;2023-04-08T09:34:25;20.15;;;17.45;;
19776;SDS011;10047;42.490;26.012;2023-04-08T09:36:52;18.27;;;15.68;;
19776;SDS011;10047;42.490;26.012;2023-04-08T09:39:19;19.17;;;16.00;;
19776;SDS011;10047;42.490;26.012;2023-04-08T09:41:46;16.48;;;14.77;;
19776;SDS011;10047;42.490;26.012;2023-04-08T09:44:14;15.98;;;14.38;;
19776;SDS011;10047;42.490;26.012;2023-04-08T09:52:11;21.50;;;18.35;;
19776;SDS011;10047;42.490;26.012;2023-04-08T09:57:20;17.42;;;15.63;;
19776;SDS011;10047;42.490;26.012;2023-04-08T09:59:56;17.08;;;15.10;;
19776;SDS011;10047;42.490;26.012;2023-04-08T10:02:29;19.88;;;17.15;;
19776;SDS011;10047;42.490;26.012;2023-04-08T10:05:02;17.70;;;15.45;;
19776;SDS011;10047;42.490;26.012;2023-04-08T10:07:29;15.73;;;13.75;;
19776;SDS011;10047;42.490;26.012;2023-04-08T10:09:55;15.68;;;14.02;;
19776;SDS011;10047;42.490;26.012;2023-04-08T10:12:22;15.43;;;13.80;;
19776;SDS011;10047;42.490;26.012;2023-04-08T10:17:53;15.75;;;13.57;;
19776;SDS011;10047;42.490;26.012;2023-04-08T10:28:26;17.00;;;14.32;;
19776;SDS011;10047;42.490;26.012;2023-04-08T10:30:54;17.10;;;15.32;;
19776;SDS011;10047;42.490;26.012;2023-04-08T10:33:23;16.70;;;14.85;;
19776;SDS011;10047;42.490;26.012;2023-04-08T10:35:53;15.55;;;13.73;;
19776;SDS011;10047;42.490;26.012;2023-04-08T10:38:39;16.27;;;14.13;;
19776;SDS011;10047;42.490;26.012;2023-04-08T10:41:06;15.77;;;13.45;;
19776;SDS011;10047;42.490;26.012;2023-04-08T10:43:34;15.32;;;12.60;;
19776;SDS011;10047;42.490;26.012;2023-04-08T10:46:00;15.15;;;13.45;;
19776;SDS011;10047;42.490;26.012;2023-04-08T10:48:26;17.25;;;15.55;;
19776;SDS011;10047;42.490;26.012;2023-04-08T10:50:59;16.38;;;14.32;;
19776;SDS011;10047;42.490;26.012;2023-04-08T10:56:11;15.00;;;12.63;;
19776;SDS011;10047;42.490;26.012;2023-04-08T10:58:49;17.70;;;13.88;;
19776;SDS011;10047;42.490;26.012;2023-04-08T11:01:17;14.65;;;13.13;;
19776;SDS011;10047;42.490;26.012;2023-04-08T11:03:43;16.63;;;13.07;;
19776;SDS011;10047;42.490;26.012;2023-04-08T11:06:09;14.73;;;13.23;;
19776;SDS011;10047;42.490;26.012;2023-04-08T11:08:35;15.02;;;12.45;;
19776;SDS011;10047;42.490;26.012;2023-04-08T11:11:02;14.00;;;12.65;;
19776;SDS011;10047;42.490;26.012;2023-04-08T11:13:29;15.27;;;13.65;;
19776;SDS011;10047;42.490;26.012;2023-04-08T11:15:55;13.48;;;12.07;;
19776;SDS011;10047;42.490;26.012;2023-04-08T11:18:23;13.35;;;11.88;;
19776;SDS011;10047;42.490;26.012;2023-04-08T11:20:49;11.93;;;10.73;;
19776;SDS011;10047;42.490;26.012;2023-04-08T11:23:15;12.82;;;11.35;;
19776;SDS011;10047;42.490;26.012;2023-04-08T11:25:41;12.45;;;10.98;;
19776;SDS011;10047;42.490;26.012;2023-04-08T11:28:08;11.57;;;10.38;;
19776;SDS011;10047;42.490;26.012;2023-04-08T11:30:37;12.95;;;10.93;;
19776;SDS011;10047;42.490;26.012;2023-04-08T11:33:04;14.52;;;10.60;;
19776;SDS011;10047;42.490;26.012;2023-04-08T11:35:30;12.05;;;10.70;;
19776;SDS011;10047;42.490;26.012;2023-04-08T11:37:56;14.77;;;11.20;;
19776;SDS011;10047;42.490;26.012;2023-04-08T11:40:22;10.05;;;9.10;;
19776;SDS011;10047;42.490;26.012;2023-04-08T11:42:48;11.43;;;10.18;;
19776;SDS011;10047;42.490;26.012;2023-04-08T11:45:15;10.75;;;9.65;;
19776;SDS011;10047;42.490;26.012;2023-04-08T11:47:43;13.13;;;11.63;;
19776;SDS011;10047;42.490;26.012;2023-04-08T11:50:09;12.00;;;10.30;;
19776;SDS011;10047;42.490;26.012;2023-04-08T11:52:42;11.63;;;10.43;;
19776;SDS011;10047;42.490;26.012;2023-04-08T11:55:20;12.10;;;10.13;;
19776;SDS011;10047;42.490;26.012;2023-04-08T11:57:48;12.52;;;11.23;;
19776;SDS011;10047;42.490;26.012;2023-04-08T12:00:15;12.38;;;10.75;;
19776;SDS011;10047;42.490;26.012;2023-04-08T12:02:40;12.65;;;10.70;;
19776;SDS011;10047;42.490;26.012;2023-04-08T12:05:06;12.25;;;10.93;;
19776;SDS011;10047;42.490;26.012;2023-04-08T12:07:31;13.48;;;10.88;;
19776;SDS011;10047;42.490;26.012;2023-04-08T12:09:57;12.00;;;10.80;;
19776;SDS011;10047;42.490;26.012;2023-04-08T12:12:23;12.80;;;10.55;;
19776;SDS011;10047;42.490;26.012;2023-04-08T12:14:48;12.32;;;10.88;;
19776;SDS011;10047;42.490;26.012;2023-04-08T12:17:14;11.63;;;10.18;;
19776;SDS011;10047;42.490;26.012;2023-04-08T12:19:39;10.57;;;9.57;;
19776;SDS011;10047;42.490;26.012;2023-04-08T12:22:05;11.50;;;10.30;;
19776;SDS011;10047;42.490;26.012;2023-04-08T12:24:31;10.70;;;9.43;;
19776;SDS011;10047;42.490;26.012;2023-04-08T12:26:57;10.77;;;9.57;;
19776;SDS011;10047;42.490;26.012;2023-04-08T12:29:22;11.40;;;10.02;;
19776;SDS011;10047;42.490;26.012;2023-04-08T12:31:47;12.25;;;10.32;;
19776;SDS011;10047;42.490;26.012;2023-04-08T12:36:44;9.32;;;8.43;;
19776;SDS011;10047;42.490;26.012;2023-04-08T12:39:11;10.07;;;9.07;;
19776;SDS011;10047;42.490;26.012;2023-04-08T12:41:36;11.77;;;10.07;;
19776;SDS011;10047;42.490;26.012;2023-04-08T12:44:02;11.27;;;10.18;;
19776;SDS011;10047;42.490;26.012;2023-04-08T12:46:27;11.02;;;9.30;;
19776;SDS011;10047;42.490;26.012;2023-04-08T12:48:53;10.68;;;9.68;;
19776;SDS011;10047;42.490;26.012;2023-04-08T12:51:18;10.73;;;9.63;;
19776;SDS011;10047;42.490;26.012;2023-04-08T12:53:44;10.38;;;9.15;;
19776;SDS011;10047;42.490;26.012;2023-04-08T12:56:09;11.38;;;8.93;;
19776;SDS011;10047;42.490;26.012;2023-04-08T12:58:35;11.00;;;9.20;;
19776;SDS011;10047;42.490;26.012;2023-04-08T13:01:00;10.43;;;9.30;;
19776;SDS011;10047;42.490;26.012;2023-04-08T13:03:26;10.00;;;9.00;;
19776;SDS011;10047;42.490;26.012;2023-04-08T13:05:54;10.68;;;9.48;;
19776;SDS011;10047;42.490;26.012;2023-04-08T13:08:20;10.05;;;9.02;;
19776;SDS011;10047;42.490;26.012;2023-04-08T13:10:47;10.02;;;8.55;;
19776;SDS011;10047;42.490;26.012;2023-04-08T13:13:12;10.50;;;8.68;;
19776;SDS011;10047;42.490;26.012;2023-04-08T13:15:38;9.80;;;8.77;;
19776;SDS011;10047;42.490;26.012;2023-04-08T13:18:03;9.38;;;8.35;;
19776;SDS011;10047;42.490;26.012;2023-04-08T13:20:29;9.20;;;8.30;;
19776;SDS011;10047;42.490;26.012;2023-04-08T13:22:55;9.18;;;6.95;;
19776;SDS011;10047;42.490;26.012;2023-04-08T13:25:20;6.85;;;6.15;;
19776;SDS011;10047;42.490;26.012;2023-04-08T13:27:46;8.00;;;7.20;;
19776;SDS011;10047;42.490;26.012;2023-04-08T13:30:11;10.88;;;8.70;;
19776;SDS011;10047;42.490;26.012;2023-04-08T13:32:37;12.80;;;10.02;;
19776;SDS011;10047;42.490;26.012;2023-04-08T13:35:03;8.52;;;7.70;;
19776;SDS011;10047;42.490;26.012;2023-04-08T13:37:29;8.60;;;7.70;;
19776;SDS011;10047;42.490;26.012;2023-04-08T13:39:54;8.90;;;7.97;;
19776;SDS011;10047;42.490;26.012;2023-04-08T13:42:21;8.95;;;8.05;;
19776;SDS011;10047;42.490;26.012;2023-04-08T13:44:46;8.88;;;7.97;;
19776;SDS011;10047;42.490;26.012;2023-04-08T13:47:12;8.43;;;7.15;;
19776;SDS011;10047;42.490;26.012;2023-04-08T13:49:37;8.52;;;7.70;;
19776;SDS011;10047;42.490;26.012;2023-04-08T13:52:03;10.18;;;9.10;;
19776;SDS011;10047;42.490;26.012;2023-04-08T13:54:28;11.10;;;8.63;;
19776;SDS011;10047;42.490;26.012;2023-04-08T13:56:54;9.13;;;8.10;;
19776;SDS011;10047;42.490;26.012;2023-04-08T13:59:19;7.88;;;7.07;;
19776;SDS011;10047;42.490;26.012;2023-04-08T14:01:46;7.50;;;6.80;;
19776;SDS011;10047;42.490;26.012;2023-04-08T14:04:13;8.88;;;8.02;;
19776;SDS011;10047;42.490;26.012;2023-04-08T14:06:38;7.20;;;6.20;;
19776;SDS011;10047;42.490;26.012;2023-04-08T14:09:03;8.98;;;7.80;;
19776;SDS011;10047;42.490;26.012;2023-04-08T14:11:29;8.80;;;7.90;;
19776;SDS011;10047;42.490;26.012;2023-04-08T14:13:55;9.60;;;8.68;;
19776;SDS011;10047;42.490;26.012;2023-04-08T14:16:20;8.75;;;7.68;;
19776;SDS011;10047;42.490;26.012;2023-04-08T14:18:45;7.50;;;6.78;;
19776;SDS011;10047;42.490;26.012;2023-04-08T14:21:11;7.30;;;6.60;;
19776;SDS011;10047;42.490;26.012;2023-04-08T14:23:38;7.47;;;6.78;;
19776;SDS011;10047;42.490;26.012;2023-04-08T14:26:04;6.80;;;6.20;;
19776;SDS011;10047;42.490;26.012;2023-04-08T14:28:29;7.88;;;7.18;;
19776;SDS011;10047;42.490;26.012;2023-04-08T14:30:55;7.28;;;6.57;;
19776;SDS011;10047;42.490;26.012;2023-04-08T14:33:20;8.13;;;7.15;;
19776;SDS011;10047;42.490;26.012;2023-04-08T14:35:46;10.15;;;8.18;;
19776;SDS011;10047;42.490;26.012;2023-04-08T14:38:12;9.45;;;8.20;;
19776;SDS011;10047;42.490;26.012;2023-04-08T14:40:37;9.90;;;7.90;;
19776;SDS011;10047;42.490;26.012;2023-04-08T14:43:03;8.00;;;7.20;;